Time;durP1;ratioP1;P1;durP2;ratioP2;P2;SDS_P1;SDS_P2;PMS_P1;PMS_P2;Temp;Humidity;BMP_temperature;BMP_pressure;BME280_temperature;BME280_humidity;BME280_pressure;Samples;Min_cycle;Max_cycle;Signal;HPM_P1;HPM_P2
2022/03/22 00:01:29;;;;;;;81.50;42.08;;;;;;;4.41;38.85;96591.47;4932640;29;20672;-63
2022/03/22 00:03:56;;;;;;;127.05;57.75;;;;;;;4.17;39.86;96583.88;4932293;29;20223;-55
2022/03/22 00:06:24;;;;;;;110.40;51.60;;;;;;;4.09;40.01;96586.50;4932126;29;20191;-56
2022/03/22 00:08:51;;;;;;;96.28;46.42;;;;;;;3.70;40.90;96589.25;4931250;29;20679;-60
2022/03/22 00:11:17;;;;;;;133.65;57.13;;;;;;;3.98;40.60;96579.16;4931666;29;20296;-62
2022/03/22 00:13:44;;;;;;;115.72;54.50;;;;;;;3.98;40.29;96568.78;4932531;29;20205;-57
2022/03/22 00:16:12;;;;;;;119.40;55.08;;;;;;;4.34;39.57;96564.59;4931694;29;20213;-64
2022/03/22 00:18:59;;;;;;;123.22;57.95;;;;;;;4.49;39.24;96568.00;4931617;29;20212;-60
2022/03/22 00:21:26;;;;;;;104.05;48.95;;;;;;;3.93;39.58;96566.72;4932734;29;20379;-55
2022/03/22 00:23:54;;;;;;;91.00;45.03;;;;;;;4.19;39.35;96555.97;4932155;29;20216;-60
2022/03/22 00:26:21;;;;;;;77.22;39.80;;;;;;;4.08;39.28;96548.59;4931826;29;20208;-59
2022/03/22 00:28:48;;;;;;;69.18;35.95;;;;;;;4.13;38.50;96567.03;4932355;29;20191;-55
2022/03/22 00:31:15;;;;;;;64.60;33.83;;;;;;;4.27;38.19;96558.47;4914829;29;20295;-61
2022/03/22 00:33:42;;;;;;;83.18;43.10;;;;;;;4.38;38.74;96567.66;4932384;29;20200;-58
2022/03/22 00:36:10;;;;;;;102.05;48.58;;;;;;;4.43;39.25;96562.72;4931130;29;20192;-54
2022/03/22 00:38:38;;;;;;;101.05;48.60;;;;;;;4.64;38.67;96553.25;4932134;29;20657;-57
2022/03/22 00:41:05;;;;;;;87.38;44.63;;;;;;;4.30;39.28;96550.34;4931808;29;20614;-54
2022/03/22 00:43:34;;;;;;;74.82;39.42;;;;;;;3.99;39.51;96560.03;4932025;29;20586;-62
2022/03/22 00:46:02;;;;;;;60.70;31.63;;;;;;;3.92;39.42;96561.69;4931085;29;20216;-61
2022/03/22 00:48:29;;;;;;;59.78;31.77;;;;;;;4.07;38.77;96562.53;4932285;29;20299;-53
2022/03/22 00:50:56;;;;;;;64.72;32.47;;;;;;;4.43;38.33;96558.34;4931419;29;20241;-64
2022/03/22 00:53:23;;;;;;;68.15;36.97;;;;;;;4.49;38.69;96559.44;4914813;29;20204;-59
2022/03/22 00:55:50;;;;;;;80.22;40.92;;;;;;;4.52;39.02;96557.28;4930976;29;20751;-56
2022/03/22 00:58:18;;;;;;;83.28;40.30;;;;;;;4.41;39.05;96564.69;4932120;29;20210;-57
2022/03/22 01:00:48;;;;;;;80.80;41.90;;;;;;;4.49;38.64;96552.44;4931409;29;20208;-59
2022/03/22 01:03:15;;;;;;;81.68;41.30;;;;;;;4.62;38.52;96551.81;4932045;29;20209;-58
2022/03/22 01:05:42;;;;;;;79.50;41.65;;;;;;;4.49;39.03;96552.44;4930783;29;20224;-60
2022/03/22 01:08:12;;;;;;;84.22;42.05;;;;;;;4.54;38.94;96550.13;4931581;29;20200;-61
2022/03/22 01:10:43;;;;;;;82.68;42.65;;;;;;;4.22;39.63;96545.22;4931211;29;20220;-61
2022/03/22 01:13:13;;;;;;;75.50;41.25;;;;;;;4.51;38.98;96549.66;4931456;29;20196;-61
2022/03/22 01:15:42;;;;;;;76.97;40.58;;;;;;;4.62;39.00;96544.84;4931013;29;20197;-57
2022/03/22 01:18:11;;;;;;;83.28;42.78;;;;;;;4.55;39.27;96541.34;4931680;29;20208;-55
2022/03/22 01:20:41;;;;;;;101.57;47.97;;;;;;;4.50;39.11;96533.28;4931190;29;20267;-60
2022/03/22 01:23:09;;;;;;;102.50;49.85;;;;;;;4.35;39.36;96535.06;4931331;29;20308;-55
2022/03/22 01:25:39;;;;;;;88.70;45.80;;;;;;;4.62;38.04;96531.84;4931217;29;20274;-59
2022/03/22 01:28:08;;;;;;;102.55;52.65;;;;;;;4.63;39.10;96528.28;4931200;29;20197;-60
2022/03/22 01:30:36;;;;;;;113.55;53.97;;;;;;;4.58;39.19;96533.19;4930947;29;20593;-61
2022/03/22 01:33:05;;;;;;;128.85;60.78;;;;;;;4.51;39.38;96532.28;4934431;29;20232;-54
2022/03/22 01:35:32;;;;;;;127.63;63.03;;;;;;;4.39;39.79;96531.13;4934697;29;20667;-59
2022/03/22 01:38:01;;;;;;;118.28;58.58;;;;;;;4.34;39.92;96527.44;4935097;29;20248;-57
2022/03/22 01:40:28;;;;;;;119.45;57.50;;;;;;;4.47;39.76;96525.84;4934500;29;20185;-55
2022/03/22 01:42:56;;;;;;;136.27;63.25;;;;;;;4.12;40.65;96529.13;4934908;29;20263;-63
2022/03/22 01:45:23;;;;;;;143.65;70.57;;;;;;;4.04;40.03;96534.38;4934792;29;20228;-57
2022/03/22 01:47:52;;;;;;;135.23;67.55;;;;;;;4.23;40.02;96536.47;4934746;29;20766;-62
2022/03/22 01:50:20;;;;;;;142.35;68.15;;;;;;;4.16;40.09;96524.38;4934021;29;20201;-59
2022/03/22 01:52:47;;;;;;;137.23;67.72;;;;;;;4.33;39.63;96526.63;4934652;29;20204;-61
2022/03/22 01:55:18;;;;;;;140.75;69.82;;;;;;;3.01;41.35;96527.91;4934048;29;20263;-56
2022/03/22 01:57:46;;;;;;;132.10;65.32;;;;;;;3.60;40.36;96523.03;4934546;29;20192;-61
2022/03/22 02:00:17;;;;;;;114.45;59.17;;;;;;;3.76;39.98;96533.31;4933822;29;20214;-62
2022/03/22 02:05:52;;;;;;;127.43;61.30;;;;;;;4.32;39.32;96519.84;4934154;29;20228;-61
2022/03/22 02:08:21;;;;;;;119.97;61.03;;;;;;;4.41;39.14;96516.19;4934462;29;20271;-61
2022/03/22 02:10:48;;;;;;;136.60;65.93;;;;;;;4.27;39.33;96516.97;4934309;29;20197;-58
2022/03/22 02:13:15;;;;;;;128.18;63.10;;;;;;;3.71;40.21;96504.47;4934444;29;20594;-58
2022/03/22 02:15:45;;;;;;;112.55;58.40;;;;;;;3.90;40.26;96520.38;4933853;29;20563;-50
2022/03/22 02:18:12;;;;;;;125.70;60.50;;;;;;;4.12;40.03;96518.75;4934194;29;20208;-59
2022/03/22 02:20:39;;;;;;;128.60;59.28;;;;;;;4.24;40.05;96522.50;4933665;29;20565;-57
2022/03/22 02:23:13;;;;;;;120.05;56.60;;;;;;;3.99;40.71;96518.53;4933888;29;20211;-62
2022/03/22 02:25:40;;;;;;;106.70;55.80;;;;;;;4.12;40.15;96519.53;4933422;29;20327;-63
2022/03/22 02:28:07;;;;;;;112.18;56.45;;;;;;;4.14;40.05;96516.78;4934169;29;20662;-58
2022/03/22 02:30:33;;;;;;;108.32;54.78;;;;;;;4.00;40.64;96522.72;4933933;29;20209;-57
2022/03/22 02:33:01;;;;;;;102.85;53.55;;;;;;;3.83;40.96;96523.84;4934488;29;20561;-59
2022/03/22 02:35:29;;;;;;;101.45;51.78;;;;;;;3.79;40.57;96513.03;4933609;29;20205;-57
2022/03/22 02:37:57;;;;;;;101.82;52.30;;;;;;;3.80;40.37;96525.00;4933692;29;20229;-56
2022/03/22 02:40:27;;;;;;;102.32;50.13;;;;;;;3.73;40.87;96523.25;4933558;29;20575;-58
2022/03/22 02:42:54;;;;;;;84.47;44.63;;;;;;;3.44;40.53;96508.41;4933990;29;20205;-59
2022/03/22 02:45:23;;;;;;;83.68;44.88;;;;;;;3.08;41.27;96508.09;4932970;29;20215;-58
2022/03/22 02:47:50;;;;;;;84.32;45.17;;;;;;;3.41;40.72;96520.91;4933476;29;20201;-58
2022/03/22 02:50:18;;;;;;;87.43;45.03;;;;;;;3.48;40.70;96527.81;4933079;29;20216;-59
2022/03/22 02:52:47;;;;;;;85.82;43.97;;;;;;;3.48;40.44;96514.06;4933792;29;20197;-60
2022/03/22 02:55:15;;;;;;;84.15;45.78;;;;;;;3.45;40.36;96514.41;4933011;29;20235;-62
2022/03/22 02:57:43;;;;;;;78.25;42.35;;;;;;;3.50;40.03;96506.91;4933183;29;20203;-61
2022/03/22 03:00:11;;;;;;;68.72;37.92;;;;;;;3.39;39.84;96525.44;4933060;29;20189;-53
2022/03/22 03:02:49;;;;;;;78.85;42.55;;;;;;;3.18;40.33;96527.81;4933682;29;20239;-59
2022/03/22 03:05:19;;;;;;;73.38;41.10;;;;;;;3.35;40.10;96530.16;4932838;29;20212;-61
2022/03/22 03:07:46;;;;;;;76.28;40.20;;;;;;;3.24;40.77;96511.59;4933694;29;20212;-59
2022/03/22 03:10:13;;;;;;;76.97;41.03;;;;;;;3.20;40.89;96531.03;4932854;29;20201;-53
2022/03/22 03:12:41;;;;;;;79.43;41.72;;;;;;;3.36;41.15;96525.78;4932785;29;20208;-59
2022/03/22 03:15:09;;;;;;;87.45;42.53;;;;;;;2.53;41.94;96537.63;4932578;29;20217;-55
2022/03/22 03:17:37;;;;;;;78.32;41.50;;;;;;;3.02;41.37;96529.53;4933185;29;20208;-57
2022/03/22 03:20:06;;;;;;;95.55;44.95;;;;;;;2.51;42.23;96519.69;4932381;29;20220;-60
2022/03/22 03:22:34;;;;;;;90.10;45.95;;;;;;;2.18;43.50;96533.66;4933455;29;20568;-58
2022/03/22 03:25:00;;;;;;;90.78;45.33;;;;;;;2.84;42.14;96531.53;4932902;29;20287;-60
2022/03/22 03:27:27;;;;;;;88.75;44.00;;;;;;;2.76;42.01;96525.56;4932945;29;20204;-49
2022/03/22 03:29:54;;;;;;;83.00;43.13;;;;;;;3.07;41.27;96519.47;4932852;29;20245;-58
2022/03/22 03:32:21;;;;;;;84.43;44.47;;;;;;;3.03;41.87;96523.34;4933405;29;20710;-60
2022/03/22 03:34:48;;;;;;;79.78;43.30;;;;;;;3.04;41.07;96522.41;4931527;29;20189;-56
2022/03/22 03:37:15;;;;;;;83.53;42.35;;;;;;;2.96;41.03;96530.19;4932733;29;20606;-56
2022/03/22 03:39:43;;;;;;;81.80;43.10;;;;;;;3.02;41.33;96529.53;4932930;29;20196;-57
2022/03/22 03:42:10;;;;;;;74.38;40.03;;;;;;;2.80;41.60;96514.72;4933086;29;20203;-56
2022/03/22 03:47:23;;;;;;;78.57;40.67;;;;;;;2.80;41.51;96535.44;4932473;29;20247;-59
2022/03/22 03:49:57;;;;;;;69.65;36.80;;;;;;;2.61;41.63;96519.50;4932061;29;20291;-59
2022/03/22 03:52:33;;;;;;;63.78;34.42;;;;;;;2.73;41.46;96529.31;4932767;29;20240;-52
2022/03/22 03:55:01;;;;;;;67.20;37.22;;;;;;;2.89;41.17;96518.91;4931868;29;20198;-56
2022/03/22 03:57:28;;;;;;;70.18;36.78;;;;;;;2.99;41.19;96516.91;4932392;29;20546;-56
2022/03/22 03:59:56;;;;;;;69.68;38.65;;;;;;;3.01;41.62;96527.09;4932096;29;20640;-59
2022/03/22 04:02:23;;;;;;;71.43;36.10;;;;;;;2.87;41.13;96526.03;4932244;29;20675;-58
2022/03/22 04:04:53;;;;;;;68.85;37.17;;;;;;;2.93;41.25;96524.53;4931943;29;20230;-60
2022/03/22 04:07:22;;;;;;;76.15;37.28;;;;;;;3.08;41.29;96523.66;4932487;29;20201;-60
2022/03/22 04:09:51;;;;;;;70.70;37.22;;;;;;;2.95;41.39;96523.41;4932424;29;20209;-54
2022/03/22 04:12:19;;;;;;;73.75;36.63;;;;;;;3.12;40.97;96512.97;4932710;29;20212;-58
2022/03/22 04:14:50;;;;;;;81.53;38.33;;;;;;;2.81;41.25;96479.31;4931498;29;20691;-56
2022/03/22 04:17:19;;;;;;;74.80;37.30;;;;;;;2.93;41.41;96499.47;4932040;29;20231;-57
2022/03/22 04:19:46;;;;;;;72.32;36.50;;;;;;;3.23;41.52;96512.59;4931414;29;20197;-59
2022/03/22 04:22:13;;;;;;;67.88;37.42;;;;;;;3.51;41.53;96518.88;4932793;29;20204;-54
2022/03/22 04:24:41;;;;;;;71.38;37.78;;;;;;;3.02;42.11;96523.53;4931877;29;20231;-60
2022/03/22 04:32:43;;;;;;;67.93;35.47;;;;;;;3.08;41.84;96528.81;4931595;29;20611;-62
2022/03/22 04:35:10;;;;;;;72.68;36.05;;;;;;;3.34;41.50;96525.16;4931383;29;20676;-63
2022/03/22 04:37:38;;;;;;;74.45;36.42;;;;;;;3.21;41.92;96522.31;4931858;29;20284;-57
2022/03/22 04:40:06;;;;;;;94.90;39.60;;;;;;;3.22;42.01;96523.91;4931933;29;20581;-59
2022/03/22 04:42:33;;;;;;;67.60;37.90;;;;;;;2.69;42.48;96530.63;4915481;29;20578;-60
2022/03/22 04:45:01;;;;;;;87.97;38.95;;;;;;;2.96;41.96;96530.19;4931766;29;20219;-59
2022/03/22 04:47:29;;;;;;;76.80;39.72;;;;;;;2.98;42.58;96525.66;4931607;29;20677;-61
2022/03/22 04:49:56;;;;;;;75.60;40.17;;;;;;;3.09;41.58;96514.91;4931514;29;20629;-57
2022/03/22 04:57:54;;;;;;;75.30;40.05;;;;;;;2.81;42.60;96518.13;4931077;29;20813;-60
2022/03/22 05:00:21;;;;;;;82.78;38.95;;;;;;;3.17;42.00;96516.66;4930659;29;20205;-62
2022/03/22 05:02:48;;;;;;;86.13;41.53;;;;;;;3.05;42.20;96524.00;4930581;29;20211;-60
2022/03/22 05:06:25;;;;;;;96.30;49.03;;;;;;;2.53;42.20;96528.09;4930166;29;20691;-57
2022/03/22 05:08:04;;;;;;;88.22;41.13;;;;;;;2.31;42.88;96512.44;4931379;29;20200;-60
2022/03/22 05:10:35;;;;;;;83.68;40.25;;;;;;;2.20;43.38;96510.19;4935836;29;20563;-60
2022/03/22 05:13:04;;;;;;;83.32;41.70;;;;;;;2.61;42.82;96509.16;4936258;29;20200;-59
2022/03/22 05:15:32;;;;;;;79.95;38.50;;;;;;;2.29;43.61;96504.84;4935549;29;20248;-59
2022/03/22 05:18:01;;;;;;;87.88;41.42;;;;;;;2.76;42.73;96522.97;4935607;29;20212;-60
2022/03/22 05:20:29;;;;;;;93.60;46.17;;;;;;;2.79;43.12;96526.03;4934969;29;20675;-55
2022/03/22 05:22:58;;;;;;;82.47;44.67;;;;;;;2.91;42.78;96509.19;4935254;29;20204;-61
2022/03/22 05:25:31;;;;;;;86.38;44.10;;;;;;;3.56;44.37;96514.78;4918410;29;20235;-57
2022/03/22 05:28:03;;;;;;;99.07;49.00;;;;;;;3.65;45.33;96515.56;4935594;29;20207;-62
2022/03/22 05:30:31;;;;;;;92.10;44.97;;;;;;;3.80;43.09;96514.63;4935104;29;20641;-58
2022/03/22 05:32:59;;;;;;;89.50;41.58;;;;;;;3.76;42.44;96515.16;4935708;29;20616;-61
2022/03/22 05:35:26;;;;;;;79.05;40.45;;;;;;;4.05;40.74;96523.03;4934771;29;20201;-60
2022/03/22 05:37:54;;;;;;;83.13;41.42;;;;;;;3.89;41.05;96523.13;4917997;29;20331;-57
2022/03/22 05:40:22;;;;;;;99.35;43.92;;;;;;;3.95;40.33;96501.69;4934865;29;20675;-54
2022/03/22 05:42:49;;;;;;;81.00;43.47;;;;;;;4.27;42.62;96511.78;4935398;29;20199;-60
2022/03/22 05:45:16;;;;;;;73.70;38.90;;;;;;;4.41;40.81;96492.84;4934389;29;20244;-56
2022/03/22 05:47:43;;;;;;;79.53;39.65;;;;;;;4.09;39.75;96503.50;4934598;29;20707;-61
2022/03/22 05:50:10;;;;;;;66.82;36.78;;;;;;;4.27;40.16;96509.19;4935142;29;20208;-54
2022/03/22 05:52:44;;;;;;;74.70;36.75;;;;;;;4.41;39.70;96492.84;4935047;29;20215;-56
2022/03/22 05:55:12;;;;;;;78.22;40.42;;;;;;;3.81;41.27;96499.88;4934077;29;20201;-56
2022/03/22 05:57:39;;;;;;;83.63;42.58;;;;;;;4.00;41.25;96499.38;4934587;29;20197;-58
2022/03/22 06:00:08;;;;;;;76.85;41.45;;;;;;;4.19;40.15;96498.88;4934401;29;20676;-56
2022/03/22 06:02:39;;;;;;;78.68;37.58;;;;;;;4.45;40.06;96494.09;4934714;29;20196;-57
2022/03/22 06:05:08;;;;;;;68.32;37.28;;;;;;;4.41;40.43;96499.81;4934446;29;20224;-54
2022/03/22 06:07:36;;;;;;;78.15;38.95;;;;;;;4.03;40.41;96494.63;4934728;29;20690;-58
2022/03/22 06:10:05;;;;;;;76.97;40.10;;;;;;;4.40;40.29;96496.41;4934167;29;20192;-61
2022/03/22 06:12:39;;;;;;;74.28;37.03;;;;;;;4.85;39.50;96485.81;4934485;29;20220;-59
2022/03/22 06:15:17;;;;;;;80.72;38.58;;;;;;;4.72;39.38;96487.47;4934250;29;20222;-62
2022/03/22 06:17:58;;;;;;;76.45;37.53;;;;;;;5.05;39.18;96494.66;4934079;29;20193;-63
2022/03/22 06:20:27;;;;;;;75.70;36.25;;;;;;;5.21;39.29;96495.44;4934269;29;20660;-57
2022/03/22 06:22:56;;;;;;;69.63;34.83;;;;;;;5.35;38.39;96484.19;4934719;29;20189;-58
2022/03/22 06:25:23;;;;;;;68.53;35.08;;;;;;;5.57;38.39;96475.41;4933618;29;20264;-55
2022/03/22 06:27:52;;;;;;;70.43;35.83;;;;;;;5.79;41.65;96485.63;4934397;29;20219;-61
2022/03/22 06:30:20;;;;;;;129.88;71.10;;;;;;;6.00;38.90;96479.66;4933780;29;20196;-57
2022/03/22 06:32:56;;;;;;;94.82;42.42;;;;;;;6.59;36.05;96480.03;4934539;29;20193;-56
2022/03/22 06:35:26;;;;;;;63.45;31.00;;;;;;;6.95;38.23;96472.81;4933847;29;20191;-61
2022/03/22 06:37:54;;;;;;;69.50;34.05;;;;;;;6.88;36.69;96464.97;4932487;29;20236;-60
2022/03/22 06:40:23;;;;;;;72.45;34.50;;;;;;;7.08;36.48;96471.06;4932794;29;20221;-62
2022/03/22 06:42:50;;;;;;;70.00;33.28;;;;;;;7.13;36.31;96466.06;4933287;29;20204;-59
2022/03/22 06:45:17;;;;;;;65.78;28.13;;;;;;;7.49;34.63;96464.94;4931766;29;20220;-60
2022/03/22 06:47:44;;;;;;;48.88;25.17;;;;;;;7.55;32.74;96464.16;4931883;29;20201;-55
2022/03/22 06:50:13;;;;;;;32.97;16.58;;;;;;;7.76;30.95;96467.41;4932712;29;20200;-61
2022/03/22 06:52:40;;;;;;;66.97;35.70;;;;;;;7.97;34.56;96476.88;4933152;29;20220;-63
2022/03/22 06:55:08;;;;;;;77.10;39.72;;;;;;;7.98;35.34;96478.44;4932345;29;20195;-59
2022/03/22 06:57:37;;;;;;;74.43;39.60;;;;;;;7.65;34.97;96467.19;4933531;29;20212;-56
2022/03/22 07:00:08;;;;;;;66.65;37.83;;;;;;;7.40;35.31;96476.56;4932603;29;20256;-64
2022/03/22 07:02:38;;;;;;;71.88;38.13;;;;;;;7.30;35.99;96465.72;4933330;29;20295;-61
2022/03/22 07:05:08;;;;;;;61.60;36.20;;;;;;;7.35;35.07;96463.31;4932353;29;20203;-57
2022/03/22 07:07:35;;;;;;;61.60;36.42;;;;;;;7.51;34.26;96462.94;4933140;29;20189;-58
2022/03/22 07:10:07;;;;;;;73.38;37.33;;;;;;;7.78;35.03;96454.97;4932185;29;20209;-62
2022/03/22 07:12:34;;;;;;;59.10;33.22;;;;;;;8.05;34.43;96461.78;4933038;29;20227;-59
2022/03/22 07:15:03;;;;;;;50.40;28.15;;;;;;;8.19;32.95;96457.38;4931973;29;20683;-58
2022/03/22 07:17:30;;;;;;;28.27;15.55;;;;;;;7.84;28.95;96463.81;4932714;29;20559;-53
2022/03/22 07:19:57;;;;;;;24.65;13.63;;;;;;;8.00;28.44;96461.59;4932537;29;20220;-61
2022/03/22 07:22:26;;;;;;;26.65;13.25;;;;;;;8.36;27.67;96458.56;4932876;29;20233;-60
2022/03/22 07:24:53;;;;;;;21.35;12.70;;;;;;;8.31;27.08;96450.56;4932393;29;20651;-58
2022/03/22 07:27:38;;;;;;;20.98;12.23;;;;;;;8.23;27.12;96450.72;4932756;29;20324;-60
2022/03/22 07:30:06;;;;;;;17.80;11.70;;;;;;;8.23;26.69;96453.34;4931485;29;20563;-63
2022/03/22 07:32:33;;;;;;;21.73;13.00;;;;;;;8.59;26.67;96440.66;4932500;29;20440;-57
2022/03/22 07:35:00;;;;;;;21.87;12.97;;;;;;;8.95;26.82;96438.31;4932370;29;20435;-55
2022/03/22 07:37:29;;;;;;;21.30;12.43;;;;;;;8.95;26.18;96434.91;4894528;29;1117618;-61
2022/03/22 07:39:57;;;;;;;23.27;12.30;;;;;;;9.26;26.24;96434.16;4932787;29;20263;-63
2022/03/22 07:42:28;;;;;;;26.43;12.57;;;;;;;9.81;27.39;96428.97;4933472;29;20212;-60
2022/03/22 07:45:03;;;;;;;20.20;11.83;;;;;;;10.08;25.50;96421.69;4931717;29;20471;-58
2022/03/22 07:47:30;;;;;;;30.40;12.93;;;;;;;10.29;26.20;96431.81;4933053;29;20867;-60
2022/03/22 07:52:58;;;;;;;21.73;13.23;;;;;;;9.90;25.79;96419.84;4933203;29;20925;-59
2022/03/22 07:55:26;;;;;;;21.87;13.03;;;;;;;10.16;26.36;96429.31;4932698;29;20546;-57
2022/03/22 07:57:54;;;;;;;20.30;13.03;;;;;;;10.10;26.80;96440.66;4933234;29;20460;-60
2022/03/22 08:00:21;;;;;;;21.10;13.20;;;;;;;10.03;25.91;96430.22;4932323;29;20483;-65
2022/03/22 08:02:54;;;;;;;22.57;12.87;;;;;;;9.81;26.80;96436.03;4932539;29;20452;-60
2022/03/22 08:05:23;;;;;;;23.10;13.33;;;;;;;9.87;28.37;96432.56;4931975;29;20540;-58
2022/03/22 08:07:51;;;;;;;24.50;14.17;;;;;;;10.26;28.33;96432.25;4932478;29;20460;-64
2022/03/22 08:10:18;;;;;;;24.73;15.57;;;;;;;10.29;27.76;96437.06;4932552;29;20456;-60
2022/03/22 08:12:46;;;;;;;26.20;14.17;;;;;;;10.13;27.86;96433.16;4932514;29;20433;-60
2022/03/22 08:15:13;;;;;;;29.30;13.50;;;;;;;9.93;27.53;96426.44;4932160;29;20479;-62
2022/03/22 08:17:41;;;;;;;24.60;12.40;;;;;;;10.04;27.39;96433.59;4931961;29;20448;-62
2022/03/22 08:20:09;;;;;;;19.97;12.50;;;;;;;9.65;27.89;96433.91;4931991;29;20954;-63
2022/03/22 08:22:52;;;;;;;19.23;12.20;;;;;;;9.74;27.45;96422.19;4932190;29;20451;-59
2022/03/22 08:25:46;;;;;;;19.47;12.10;;;;;;;10.12;27.96;96436.81;4931667;29;20892;-64
2022/03/22 08:28:14;;;;;;;28.80;13.07;;;;;;;10.08;28.68;96435.59;4932087;29;20444;-62
2022/03/22 08:30:42;;;;;;;24.90;14.10;;;;;;;10.11;28.47;96427.34;4931716;29;20454;-59
2022/03/22 08:33:10;;;;;;;23.23;13.73;;;;;;;10.47;28.08;96431.84;4932259;29;20992;-59
2022/03/22 08:35:46;;;;;;;19.13;13.23;;;;;;;10.73;27.59;96428.94;4931713;29;20963;-63
2022/03/22 08:38:19;;;;;;;20.27;12.93;;;;;;;10.26;28.60;96434.84;4931764;29;20487;-61
2022/03/22 08:40:50;;;;;;;22.83;13.20;;;;;;;10.71;29.13;96433.59;4931551;29;20531;-63
2022/03/22 08:43:21;;;;;;;21.93;13.40;;;;;;;10.94;29.84;96425.88;4932514;29;20986;-65
2022/03/22 08:45:48;;;;;;;24.73;14.13;;;;;;;10.96;28.88;96415.16;4931660;29;20468;-61
2022/03/22 08:48:15;;;;;;;22.33;13.93;;;;;;;11.05;28.44;96412.03;4932054;29;20453;-62
2022/03/22 08:50:44;;;;;;;22.83;13.70;;;;;;;10.76;28.73;96409.34;4931955;29;20437;-64
2022/03/22 08:53:12;;;;;;;19.50;12.67;;;;;;;10.00;30.25;96428.00;4931924;29;20492;-66
2022/03/22 08:55:48;;;;;;;25.13;15.23;;;;;;;10.55;30.67;96420.25;4931731;29;20529;-55
2022/03/22 08:58:16;;;;;;;27.43;13.27;;;;;;;10.53;30.81;96423.09;4931646;29;20452;-60
2022/03/22 09:00:45;;;;;;;26.53;12.83;;;;;;;10.80;32.24;96413.91;4931723;29;20473;-67
2022/03/22 09:03:12;;;;;;;40.13;13.97;;;;;;;11.12;32.21;96411.94;4931962;29;20452;-57
2022/03/22 09:08:25;;;;;;;21.87;13.63;;;;;;;11.65;31.72;96394.44;4931694;29;20791;-62
2022/03/22 09:10:52;;;;;;;18.77;11.90;;;;;;;11.81;31.08;96385.09;4931382;29;20428;-58
2022/03/22 09:13:20;;;;;;;20.17;13.07;;;;;;;11.73;30.92;96383.59;4931862;29;20890;-56
2022/03/22 09:15:48;;;;;;;25.73;12.70;;;;;;;11.85;30.68;96388.88;4931467;29;21021;-59
2022/03/22 09:18:16;;;;;;;20.07;12.33;;;;;;;12.02;30.83;96393.22;4931765;29;20436;-61
2022/03/22 09:20:45;;;;;;;22.53;12.73;;;;;;;11.96;30.51;96393.34;4931285;29;20451;-61
2022/03/22 09:23:13;;;;;;;23.30;13.60;;;;;;;12.02;30.31;96381.94;4931894;29;20464;-61
2022/03/22 09:25:41;;;;;;;22.30;13.90;;;;;;;11.69;31.57;96381.66;4931371;29;20460;-55
2022/03/22 09:28:08;;;;;;;22.47;13.37;;;;;;;11.85;31.37;96373.13;4931795;29;20436;-55
2022/03/22 09:30:36;;;;;;;23.77;12.63;;;;;;;11.95;31.87;96365.50;4931202;29;20486;-65
2022/03/22 09:33:04;;;;;;;23.67;13.97;;;;;;;12.07;30.71;96350.53;4932056;29;20455;-62
2022/03/22 09:35:31;;;;;;;20.07;11.97;;;;;;;12.04;31.47;96372.00;4931042;29;20433;-66
2022/03/22 09:37:59;;;;;;;18.40;11.13;;;;;;;12.15;31.06;96376.47;4931185;29;21017;-57
2022/03/22 09:40:27;;;;;;;24.60;12.13;;;;;;;12.83;30.60;96364.22;4931154;29;20480;-59
2022/03/22 09:42:55;;;;;;;19.73;10.53;;;;;;;13.06;30.24;96366.03;4931385;29;20441;-55
2022/03/22 09:45:28;;;;;;;20.10;11.57;;;;;;;13.06;30.25;96361.53;4930431;29;20551;-61
2022/03/22 09:47:56;;;;;;;18.97;11.70;;;;;;;12.97;30.08;96360.28;4931895;29;20499;-71
2022/03/22 09:51:44;;;;;;;17.60;10.97;;;;;;;13.08;30.64;96367.38;4931393;29;20452;-62
2022/03/22 09:53:12;;;;;;;17.00;10.50;;;;;;;12.92;30.43;96354.94;4932935;29;20444;-67
2022/03/22 09:55:41;;;;;;;22.47;11.23;;;;;;;13.13;29.97;96354.31;4934631;29;20456;-66
2022/03/22 09:58:08;;;;;;;16.57;10.23;;;;;;;12.86;30.83;96362.97;4934737;29;20455;-57
2022/03/22 10:00:36;;;;;;;18.73;10.83;;;;;;;13.04;30.61;96350.47;4934506;29;21045;-67
2022/03/22 10:03:03;;;;;;;20.43;10.33;;;;;;;12.75;30.92;96342.75;4935010;29;20492;-64
2022/03/22 10:05:30;;;;;;;14.60;9.57;;;;;;;12.76;30.82;96352.25;4934534;29;20495;-61
2022/03/22 10:07:59;;;;;;;17.83;9.63;;;;;;;12.87;30.78;96339.06;4934835;29;20487;-60
2022/03/22 10:10:28;;;;;;;16.07;9.63;;;;;;;13.00;30.46;96341.41;4934893;29;20502;-63
2022/03/22 10:12:57;;;;;;;14.93;9.97;;;;;;;13.38;30.18;96330.28;4934854;29;20467;-58
2022/03/22 10:15:33;;;;;;;14.83;9.17;;;;;;;13.41;29.85;96323.75;4934294;29;20971;-59
2022/03/22 10:18:10;;;;;;;21.13;9.93;;;;;;;13.69;29.60;96319.19;4934933;29;21004;-60
2022/03/22 10:20:38;;;;;;;19.20;10.10;;;;;;;13.55;30.15;96314.47;4934075;29;20456;-60
2022/03/22 10:23:10;;;;;;;18.93;10.37;;;;;;;13.21;30.29;96285.50;4934501;29;20754;-64
2022/03/22 10:25:39;;;;;;;17.17;9.90;;;;;;;13.81;29.60;96313.84;4933575;29;20496;-61
2022/03/22 10:28:07;;;;;;;22.90;10.77;;;;;;;13.73;29.52;96316.88;4934359;29;20547;-65
2022/03/22 10:30:35;;;;;;;15.50;9.17;;;;;;;14.25;29.05;96310.25;4934265;29;20453;-58
2022/03/22 10:33:03;;;;;;;16.87;9.53;;;;;;;14.43;28.95;96301.28;4934690;29;20448;-66
2022/03/22 10:35:37;;;;;;;16.60;9.83;;;;;;;14.23;29.33;96293.91;4933894;29;20444;-56
2022/03/22 10:38:06;;;;;;;18.83;10.37;;;;;;;14.96;29.11;96307.44;4934309;29;20487;-62
2022/03/22 10:40:40;;;;;;;17.43;9.60;;;;;;;15.24;28.63;96294.00;4935381;29;20459;-61
2022/03/22 10:43:13;;;;;;;18.03;8.60;;;;;;;15.31;28.10;96285.09;4936297;29;21070;-57
2022/03/22 10:45:41;;;;;;;16.67;9.63;;;;;;;15.41;28.37;96266.72;4934299;29;20997;-56
2022/03/22 10:48:08;;;;;;;19.03;9.07;;;;;;;15.04;27.63;96270.06;4934493;29;20492;-53
2022/03/22 10:50:38;;;;;;;13.73;8.50;;;;;;;15.48;27.78;96260.16;4916965;29;20455;-61
2022/03/22 10:53:05;;;;;;;16.10;8.83;;;;;;;15.68;27.48;96262.16;4934609;29;20440;-65
2022/03/22 10:55:32;;;;;;;19.20;9.40;;;;;;;15.47;28.02;96265.72;4933696;29;20448;-54
2022/03/22 10:58:02;;;;;;;16.97;8.97;;;;;;;16.00;27.20;96252.34;4934281;29;20476;-61
2022/03/22 11:00:30;;;;;;;16.13;9.10;;;;;;;16.08;27.18;96246.53;4933170;29;20511;-63
2022/03/22 11:02:57;;;;;;;17.50;9.53;;;;;;;15.92;27.30;96252.81;4933800;29;20951;-58
2022/03/22 11:05:25;;;;;;;16.33;9.07;;;;;;;16.15;28.00;96247.91;4932318;29;20585;-58
2022/03/22 11:07:53;;;;;;;17.37;8.50;;;;;;;16.71;26.83;96240.22;4934354;29;20484;-61
2022/03/22 11:10:29;;;;;;;11.73;8.43;;;;;;;16.74;25.29;96235.22;4932977;29;20450;-67
2022/03/22 11:12:58;;;;;;;13.40;8.80;;;;;;;16.70;25.33;96236.78;4933716;29;20448;-61
2022/03/22 11:15:32;;;;;;;12.90;8.40;;;;;;;16.82;25.22;96224.09;4932549;29;20448;-58
2022/03/22 11:18:02;;;;;;;13.33;8.37;;;;;;;17.17;25.02;96224.16;4933394;29;20469;-61
2022/03/22 11:20:29;;;;;;;17.50;8.23;;;;;;;17.33;25.32;96221.50;4932768;29;20539;-58
2022/03/22 11:22:57;;;;;;;13.60;8.40;;;;;;;17.52;25.00;96220.72;4933705;29;20447;-53
2022/03/22 11:25:36;;;;;;;13.27;8.20;;;;;;;17.85;24.09;96203.44;4933055;29;20444;-60
2022/03/22 11:28:11;;;;;;;11.40;7.50;;;;;;;17.81;23.85;96192.59;4933723;29;20555;-67
2022/03/22 11:30:40;;;;;;;12.47;8.30;;;;;;;18.25;24.39;96198.00;4932323;29;20443;-54
2022/03/22 11:35:59;;;;;;;12.83;8.43;;;;;;;18.55;23.59;96181.19;4932465;29;20954;-58
2022/03/22 11:38:44;;;;;;;14.47;8.00;;;;;;;18.59;23.05;96185.69;4932934;29;20448;-66
2022/03/22 11:44:18;;;;;;;14.70;8.50;;;;;;;18.30;22.37;96182.09;4932742;29;20887;-67
2022/03/22 11:46:48;;;;;;;15.47;8.50;;;;;;;18.45;22.28;96175.94;4933185;29;20476;-59
2022/03/22 11:49:18;;;;;;;12.23;8.27;;;;;;;18.65;22.22;96159.91;4932464;29;20460;-63
2022/03/22 11:52:12;;;;;;;11.67;8.13;;;;;;;18.89;22.03;96155.47;4933070;29;20492;-56
2022/03/22 11:54:43;;;;;;;21.30;8.40;;;;;;;19.49;21.91;96140.94;4932502;29;20832;-65
2022/03/22 11:57:16;;;;;;;15.30;8.23;;;;;;;19.85;21.08;96144.81;4932994;29;20472;-62
2022/03/22 11:59:47;;;;;;;14.33;8.10;;;;;;;20.36;20.98;96132.50;4931924;29;20935;-59